Map

Track Data

SID SEASON NUMBER BASIN SUBBASIN NAME ISO_TIME NATURE LAT LON WMO_WIND WMO_PRES WMO_AGENCY TRACK_TYPE DIST2LAND LANDFALL IFLAG USA_AGENCY USA_ATCF_ID USA_LAT USA_LON USA_RECORD USA_STATUS USA_WIND USA_PRES USA_SSHS USA_R34_NE USA_R34_SE USA_R34_SW USA_R34_NW USA_R50_NE USA_R50_SE USA_R50_SW USA_R50_NW USA_R64_NE USA_R64_SE USA_R64_SW USA_R64_NW USA_POCI USA_ROCI USA_RMW USA_EYE TOKYO_LAT TOKYO_LON TOKYO_GRADE TOKYO_WIND TOKYO_PRES TOKYO_R50_DIR TOKYO_R50_LONG TOKYO_R50_SHORT TOKYO_R30_DIR TOKYO_R30_LONG TOKYO_R30_SHORT TOKYO_LAND CMA_LAT CMA_LON CMA_CAT CMA_WIND CMA_PRES HKO_LAT HKO_LON HKO_CAT HKO_WIND HKO_PRES NEWDELHI_LAT NEWDELHI_LON NEWDELHI_GRADE NEWDELHI_WIND NEWDELHI_PRES NEWDELHI_CI NEWDELHI_DP NEWDELHI_POCI REUNION_LAT REUNION_LON REUNION_TYPE REUNION_WIND REUNION_PRES REUNION_TNUM REUNION_CI REUNION_RMW REUNION_R34_NE REUNION_R34_SE REUNION_R34_SW REUNION_R34_NW REUNION_R50_NE REUNION_R50_SE REUNION_R50_SW REUNION_R50_NW REUNION_R64_NE REUNION_R64_SE REUNION_R64_SW REUNION_R64_NW BOM_LAT BOM_LON BOM_TYPE BOM_WIND BOM_PRES BOM_TNUM BOM_CI BOM_RMW BOM_R34_NE BOM_R34_SE BOM_R34_SW BOM_R34_NW BOM_R50_NE BOM_R50_SE BOM_R50_SW BOM_R50_NW BOM_R64_NE BOM_R64_SE BOM_R64_SW BOM_R64_NW BOM_ROCI BOM_POCI BOM_EYE BOM_POS_METHOD BOM_PRES_METHOD NADI_LAT NADI_LON NADI_CAT NADI_WIND NADI_PRES WELLINGTON_LAT WELLINGTON_LON WELLINGTON_WIND WELLINGTON_PRES DS824_LAT DS824_LON DS824_STAGE DS824_WIND DS824_PRES TD9636_LAT TD9636_LON TD9636_STAGE TD9636_WIND TD9636_PRES TD9635_LAT TD9635_LON TD9635_WIND TD9635_PRES TD9635_ROCI NEUMANN_LAT NEUMANN_LON NEUMANN_CLASS NEUMANN_WIND NEUMANN_PRES MLC_LAT MLC_LON MLC_CLASS MLC_WIND MLC_PRES USA_GUST BOM_GUST BOM_GUST_PER REUNION_GUST REUNION_GUST_PER USA_SEAHGT USA_SEARAD_NE USA_SEARAD_SE USA_SEARAD_SW USA_SEARAD_NW STORM_SPEED STORM_DIR
1969264N16313 1969 84 NA NA INGA 1969-09-20 12:00:00 TS 16.0000 -47.0000 25 hurdat_atl main 1355 1345 O_____________ hurdat_atl AL201969 16.0000 -47.0000 TD 25 -1 10 288
1969264N16313 1969 84 NA NA INGA 1969-09-20 15:00:00 TS 16.1603 -47.5048 main 1350 1337 P_____________ AL201969 16.1603 -47.5048 TD 25 -1 10 287
1969264N16313 1969 84 NA NA INGA 1969-09-20 18:00:00 TS 16.3000 -48.0000 25 hurdat_atl main 1338 1328 O_____________ hurdat_atl AL201969 16.3000 -48.0000 TD 25 -1 10 285
1969264N16313 1969 84 NA NA INGA 1969-09-20 21:00:00 TS 16.4073 -48.4851 main 1328 1315 P_____________ AL201969 16.4073 -48.4851 TD 27 -1 10 282
1969264N16313 1969 84 NA NA INGA 1969-09-21 00:00:00 TS 16.5000 -49.0000 30 hurdat_atl main 1315 1298 O_____________ hurdat_atl AL201969 16.5000 -49.0000 TD 30 -1 11 281
1969264N16313 1969 84 NA NA INGA 1969-09-21 03:00:00 TS 16.6076 -49.6074 main 1298 1285 P_____________ AL201969 16.6076 -49.6074 TD 32 -1 12 280
1969264N16313 1969 84 NA NA INGA 1969-09-21 06:00:00 TS 16.7000 -50.2000 35 hurdat_atl main 1285 1271 O_____________ hurdat_atl AL201969 16.7000 -50.2000 TS 35 0 11 278
1969264N16313 1969 84 NA NA INGA 1969-09-21 09:00:00 TS 16.7574 -50.6951 main 1278 1266 P_____________ AL201969 16.7574 -50.6951 TS 37 0 9 277
1969264N16313 1969 84 NA NA INGA 1969-09-21 12:00:00 TS 16.8000 -51.1000 40 1001 hurdat_atl main 1266 1241 O_____________ hurdat_atl AL201969 16.8000 -51.1000 TS 40 1001 0 7 278
1969264N16313 1969 84 NA NA INGA 1969-09-21 15:00:00 TS 16.8498 -51.4225 main 1241 1220 P_____________ AL201969 16.8498 -51.4225 TS 42 0 6 280
1969264N16313 1969 84 NA NA INGA 1969-09-21 18:00:00 TS 16.9000 -51.7000 45 hurdat_atl main 1220 1194 O_____________ hurdat_atl AL201969 16.9000 -51.7000 TS 45 0 6 280
1969264N16313 1969 84 NA NA INGA 1969-09-21 21:00:00 TS 16.9500 -52.0000 main 1194 1174 P_____________ AL201969 16.9500 -52.0000 TS 45 0 6 280
1969264N16313 1969 84 NA NA INGA 1969-09-22 00:00:00 TS 17.0000 -52.3000 45 hurdat_atl main 1174 1148 O_____________ hurdat_atl AL201969 17.0000 -52.3000 TS 45 0 6 280
1969264N16313 1969 84 NA NA INGA 1969-09-22 03:00:00 TS 17.0500 -52.6000 main 1148 1130 P_____________ AL201969 17.0500 -52.6000 TS 45 0 6 280
1969264N16313 1969 84 NA NA INGA 1969-09-22 06:00:00 TS 17.1000 -52.9000 45 hurdat_atl main 1130 1105 O_____________ hurdat_atl AL201969 17.1000 -52.9000 TS 45 0 6 280
1969264N16313 1969 84 NA NA INGA 1969-09-22 09:00:00 TS 17.1500 -53.2000 main 1105 1088 P_____________ AL201969 17.1500 -53.2000 TS 47 0 6 280
1969264N16313 1969 84 NA NA INGA 1969-09-22 12:00:00 TS 17.2000 -53.5000 50 1007 hurdat_atl main 1088 1064 O_____________ hurdat_atl AL201969 17.2000 -53.5000 TS 50 1007 0 6 280
1969264N16313 1969 84 NA NA INGA 1969-09-22 15:00:00 TS 17.2500 -53.8000 main 1064 1048 P_____________ AL201969 17.2500 -53.8000 TS 50 0 6 280
1969264N16313 1969 84 NA NA INGA 1969-09-22 18:00:00 TS 17.3000 -54.1000 50 hurdat_atl main 1048 1026 O_____________ hurdat_atl AL201969 17.3000 -54.1000 TS 50 0 6 279
1969264N16313 1969 84 NA NA INGA 1969-09-22 21:00:00 TS 17.3424 -54.3926 main 1026 1012 P_____________ AL201969 17.3424 -54.3926 TS 52 0 6 280
1969264N16313 1969 84 NA NA INGA 1969-09-23 00:00:00 TS 17.4000 -54.7000 55 hurdat_atl main 1012 997 O_____________ hurdat_atl AL201969 17.4000 -54.7000 TS 55 0 6 284
1969264N16313 1969 84 NA NA INGA 1969-09-23 03:00:00 TS 17.4925 -55.0425 main 999 980 P_____________ AL201969 17.4925 -55.0425 TS 52 0 7 287
1969264N16313 1969 84 NA NA INGA 1969-09-23 06:00:00 TS 17.6000 -55.4000 50 hurdat_atl main 980 967 O_____________ hurdat_atl AL201969 17.6000 -55.4000 TS 50 0 7 287
1969264N16313 1969 84 NA NA INGA 1969-09-23 09:00:00 TS 17.6999 -55.7425 main 969 954 P_____________ AL201969 17.6999 -55.7425 TS 42 0 7 287
1969264N16313 1969 84 NA NA INGA 1969-09-23 12:00:00 TS 17.8000 -56.1000 35 1006 hurdat_atl main 954 940 O_____________ hurdat_atl AL201969 17.8000 -56.1000 TS 35 1006 0 7 286
1969264N16313 1969 84 NA NA INGA 1969-09-23 15:00:00 TS 17.8999 -56.4850 main 940 919 P_____________ AL201969 17.8999 -56.4850 TS 32 -1 8 285
1969264N16313 1969 84 NA NA INGA 1969-09-23 18:00:00 TS 18.0000 -56.9000 30 hurdat_atl main 919 877 O_____________ hurdat_atl AL201969 18.0000 -56.9000 TD 30 -1 8 284
1969264N16313 1969 84 NA NA INGA 1969-09-23 21:00:00 TS 18.0999 -57.3425 main 877 823 P_____________ AL201969 18.0999 -57.3425 TD 30 -1 9 283
1969264N16313 1969 84 NA NA INGA 1969-09-24 00:00:00 TS 18.2000 -57.8000 30 hurdat_atl main 823 781 O_____________ hurdat_atl AL201969 18.2000 -57.8000 TD 30 -1 9 283
1969264N16313 1969 84 NA NA INGA 1969-09-24 03:00:00 TS 18.2999 -58.2500 main 770 728 P_____________ AL201969 18.2999 -58.2500 TD 27 -1 9 283
1969264N16313 1969 84 NA NA INGA 1969-09-24 06:00:00 TS 18.4000 -58.7000 25 hurdat_atl main 728 685 O_____________ hurdat_atl AL201969 18.4000 -58.7000 TD 25 -1 9 283
1969264N16313 1969 84 NA NA INGA 1969-09-24 09:00:00 TS 18.5000 -59.1650 main 675 633 P_____________ AL201969 18.5000 -59.1650 TD 25 -1 9 283
1969264N16313 1969 84 NA NA INGA 1969-09-24 12:00:00 TS 18.6000 -59.6000 25 1007 hurdat_atl main 633 591 O_____________ hurdat_atl AL201969 18.6000 -59.6000 TD 25 1007 -1 8 285
1969264N16313 1969 84 NA NA INGA 1969-09-24 15:00:00 TS 18.6999 -59.9725 main 591 560 P_____________ AL201969 18.6999 -59.9725 TD 25 -1 7 287
1969264N16313 1969 84 NA NA INGA 1969-09-24 18:00:00 TS 18.8000 -60.3000 25 hurdat_atl main 560 529 O_____________ hurdat_atl AL201969 18.8000 -60.3000 TD 25 -1 6 288
1969264N16313 1969 84 NA NA INGA 1969-09-24 21:00:00 TS 18.8924 -60.6076 main 529 499 P_____________ AL201969 18.8924 -60.6076 TD 27 -1 6 289
1969264N16313 1969 84 NA NA INGA 1969-09-25 00:00:00 TS 19.0000 -60.9000 30 hurdat_atl main 499 469 O_____________ hurdat_atl AL201969 19.0000 -60.9000 TD 30 -1 6 294
1969264N16313 1969 84 NA NA INGA 1969-09-25 03:00:00 TS 19.1425 -61.2075 main 469 443 P_____________ AL201969 19.1425 -61.2075 TD 30 -1 6 298
1969264N16313 1969 84 NA NA INGA 1969-09-25 06:00:00 TS 19.3000 -61.5000 30 hurdat_atl main 443 415 O_____________ hurdat_atl AL201969 19.3000 -61.5000 TD 30 -1 6 299
1969264N16313 1969 84 NA NA INGA 1969-09-25 09:00:00 TS 19.4425 -61.7725 main 415 401 P_____________ AL201969 19.4425 -61.7725 TD 30 -1 6 303
1969264N16313 1969 84 NA NA INGA 1969-09-25 12:00:00 TS 19.6000 -62.0000 30 hurdat_atl main 401 390 O_____________ hurdat_atl AL201969 19.6000 -62.0000 TD 30 -1 5 313
1969264N16313 1969 84 NA NA INGA 1969-09-25 15:00:00 TS 19.7925 -62.1725 main 390 385 P_____________ AL201969 19.7925 -62.1725 TD 27 -1 5 325
1969264N16313 1969 84 NA NA INGA 1969-09-25 18:00:00 TS 20.0000 -62.3000 25 hurdat_atl main 390 386 O_____________ hurdat_atl AL201969 20.0000 -62.3000 TD 25 -1 5 332
1969264N16313 1969 84 NA NA INGA 1969-09-25 21:00:00 TS 20.2000 -62.4001 main 391 388 P_____________ AL201969 20.2000 -62.4001 TD 25 -1 4 335
1969264N16313 1969 84 NA NA INGA 1969-09-26 00:00:00 TS 20.4000 -62.5000 25 hurdat_atl main 394 392 O_____________ hurdat_atl AL201969 20.4000 -62.5000 TD 25 -1 5 330
1969264N16313 1969 84 NA NA INGA 1969-09-26 03:00:00 TS 20.6000 -62.6500 main 399 390 P_____________ AL201969 20.6000 -62.6500 TD 25 -1 5 325
1969264N16313 1969 84 NA NA INGA 1969-09-26 06:00:00 TS 20.8000 -62.8000 25 hurdat_atl main 397 397 O_____________ hurdat_atl AL201969 20.8000 -62.8000 TD 25 -1 5 329
1969264N16313 1969 84 NA NA INGA 1969-09-26 09:00:00 TS 21.0000 -62.9076 main 405 405 P_____________ AL201969 21.0000 -62.9076 TD 25 -1 4 335
1969264N16313 1969 84 NA NA INGA 1969-09-26 12:00:00 TS 21.2000 -63.0000 25 hurdat_atl main 414 414 O_____________ hurdat_atl AL201969 21.2000 -63.0000 TD 25 -1 5 336
1969264N16313 1969 84 NA NA INGA 1969-09-26 15:00:00 TS 21.4075 -63.1075 main 425 425 P_____________ AL201969 21.4075 -63.1075 TD 25 -1 4 335
1969264N16313 1969 84 NA NA INGA 1969-09-26 18:00:00 TS 21.6000 -63.2000 25 hurdat_atl main 436 436 O_____________ hurdat_atl AL201969 21.6000 -63.2000 TD 25 -1 4 340
1969264N16313 1969 84 NA NA INGA 1969-09-26 21:00:00 TS 21.7575 -63.2501 main 449 449 P_____________ AL201969 21.7575 -63.2501 TD 25 -1 3 343
1969264N16313 1969 84 NA NA INGA 1969-09-27 00:00:00 TS 21.9000 -63.3000 25 hurdat_atl main 459 459 O_____________ hurdat_atl AL201969 21.9000 -63.3000 TD 25 -1 3 335
1969264N16313 1969 84 NA NA INGA 1969-09-27 03:00:00 TS 22.0500 -63.4000 main 473 468 P_____________ AL201969 22.0500 -63.4000 TD 25 -1 4 329
1969264N16313 1969 84 NA NA INGA 1969-09-27 06:00:00 TS 22.2000 -63.5000 25 hurdat_atl main 478 478 O_____________ hurdat_atl AL201969 22.2000 -63.5000 TD 25 -1 3 334
1969264N16313 1969 84 NA NA INGA 1969-09-27 09:00:00 TS 22.3500 -63.5575 main 483 483 P_____________ AL201969 22.3500 -63.5575 TD 25 -1 3 344
1969264N16313 1969 84 NA NA INGA 1969-09-27 12:00:00 TS 22.5000 -63.6000 25 hurdat_atl main 503 503 O_____________ hurdat_atl AL201969 22.5000 -63.6000 TD 25 -1 3 345
1969264N16313 1969 84 NA NA INGA 1969-09-27 15:00:00 TS 22.6575 -63.6500 main 519 519 P_____________ AL201969 22.6575 -63.6500 TD 25 -1 3 344
1969264N16313 1969 84 NA NA INGA 1969-09-27 18:00:00 TS 22.8000 -63.7000 25 hurdat_atl main 530 530 O_____________ hurdat_atl AL201969 22.8000 -63.7000 TD 25 -1 3 340
1969264N16313 1969 84 NA NA INGA 1969-09-27 21:00:00 TS 22.9075 -63.7500 main 536 536 P_____________ AL201969 22.9075 -63.7500 TD 25 -1 2 335
1969264N16313 1969 84 NA NA INGA 1969-09-28 00:00:00 TS 23.0000 -63.8000 25 hurdat_atl main 547 547 O_____________ hurdat_atl AL201969 23.0000 -63.8000 TD 25 -1 2 334
1969264N16313 1969 84 NA NA INGA 1969-09-28 03:00:00 TS 23.0925 -63.8500 main 554 554 P_____________ AL201969 23.0925 -63.8500 TD 25 -1 2 335
1969264N16313 1969 84 NA NA INGA 1969-09-28 06:00:00 TS 23.2000 -63.9000 25 hurdat_atl main 565 565 O_____________ hurdat_atl AL201969 23.2000 -63.9000 TD 25 -1 3 340
1969264N16313 1969 84 NA NA INGA 1969-09-28 09:00:00 TS 23.3425 -63.9425 main 575 575 P_____________ AL201969 23.3425 -63.9425 TD 27 -1 3 344
1969264N16313 1969 84 NA NA INGA 1969-09-28 12:00:00 TS 23.5000 -64.0000 30 1000 hurdat_atl main 593 593 O_____________ hurdat_atl AL201969 23.5000 -64.0000 TD 30 1000 -1 3 336
1969264N16313 1969 84 NA NA INGA 1969-09-28 15:00:00 TS 23.6425 -64.0925 main 601 601 P_____________ AL201969 23.6425 -64.0925 TD 32 -1 4 329
1969264N16313 1969 84 NA NA INGA 1969-09-28 18:00:00 TS 23.8000 -64.2000 35 hurdat_atl main 621 621 O_____________ hurdat_atl AL201969 23.8000 -64.2000 TS 35 0 4 332
1969264N16313 1969 84 NA NA INGA 1969-09-28 21:00:00 TS 24.0000 -64.3000 main 640 640 P_____________ AL201969 24.0000 -64.3000 TS 35 0 4 336
1969264N16313 1969 84 NA NA INGA 1969-09-29 00:00:00 TS 24.2000 -64.4000 35 hurdat_atl main 660 660 O_____________ hurdat_atl AL201969 24.2000 -64.4000 TS 35 0 4 333
1969264N16313 1969 84 NA NA INGA 1969-09-29 03:00:00 TS 24.3575 -64.5000 main 680 678 P_____________ AL201969 24.3575 -64.5000 TS 37 0 4 329
1969264N16313 1969 84 NA NA INGA 1969-09-29 06:00:00 TS 24.5000 -64.6000 40 hurdat_atl main 689 689 O_____________ hurdat_atl AL201969 24.5000 -64.6000 TS 40 0 3 326
1969264N16313 1969 84 NA NA INGA 1969-09-29 09:00:00 TS 24.6275 -64.7001 main 699 699 P_____________ AL201969 24.6275 -64.7001 TS 45 0 4 329
1969264N16313 1969 84 NA NA INGA 1969-09-29 12:00:00 TS 24.8000 -64.8000 50 992 hurdat_atl main 720 720 O_____________ hurdat_atl AL201969 24.8000 -64.8000 TS 50 992 0 5 334
1969264N16313 1969 84 NA NA INGA 1969-09-29 15:00:00 TS 25.0700 -64.9372 main 752 751 P_____________ AL201969 25.0700 -64.9372 TS 52 0 6 343
1969264N16313 1969 84 NA NA INGA 1969-09-29 18:00:00 TS 25.4000 -65.0000 55 hurdat_atl main 785 785 O_____________ hurdat_atl AL201969 25.4000 -65.0000 TS 55 0 7 3
1969264N16313 1969 84 NA NA INGA 1969-09-29 21:00:00 TS 25.7500 -64.9026 main 819 819 P_____________ AL201969 25.7500 -64.9026 TS 60 0 8 21
1969264N16313 1969 84 NA NA INGA 1969-09-30 00:00:00 TS 26.1000 -64.7000 65 hurdat_atl main 865 865 O_____________ hurdat_atl AL201969 26.1000 -64.7000 HU 65 1 8 31
1969264N16313 1969 84 NA NA INGA 1969-09-30 03:00:00 TS 26.4151 -64.4576 main 901 901 P_____________ AL201969 26.4151 -64.4576 HU 67 1 8 37
1969264N16313 1969 84 NA NA INGA 1969-09-30 06:00:00 TS 26.7000 -64.2000 70 hurdat_atl main 938 938 O_____________ hurdat_atl AL201969 26.7000 -64.2000 HU 70 1 7 38
1969264N16313 1969 84 NA NA INGA 1969-09-30 09:00:00 TS 26.9499 -63.9923 main 964 964 P_____________ AL201969 26.9499 -63.9923 HU 72 1 6 36
1969264N16313 1969 84 NA NA INGA 1969-09-30 12:00:00 TS 27.2000 -63.8000 75 990 hurdat_atl main 1000 1000 O_____________ hurdat_atl AL201969 27.2000 -63.8000 HU 75 990 1 7 32
1969264N16313 1969 84 NA NA INGA 1969-09-30 15:00:00 TS 27.5000 -63.6000 main 1037 1037 P_____________ AL201969 27.5000 -63.6000 HU 77 1 7 31
1969264N16313 1969 84 NA NA INGA 1969-09-30 18:00:00 TS 27.8000 -63.4000 80 hurdat_atl main 1074 1074 O_____________ hurdat_atl AL201969 27.8000 -63.4000 HU 80 1 7 32
1969264N16313 1969 84 NA NA INGA 1969-09-30 21:00:00 TS 28.0575 -63.1999 main 1111 1111 P_____________ AL201969 28.0575 -63.1999 HU 80 1 6 35
1969264N16313 1969 84 NA NA INGA 1969-10-01 00:00:00 TS 28.3000 -63.0000 80 hurdat_atl main 1137 1137 O_____________ hurdat_atl AL201969 28.3000 -63.0000 HU 80 1 6 36
1969264N16313 1969 84 NA NA INGA 1969-10-01 03:00:00 TS 28.5500 -62.7999 main 1164 1164 P_____________ AL201969 28.5500 -62.7999 HU 80 1 6 35
1969264N16313 1969 84 NA NA INGA 1969-10-01 06:00:00 TS 28.8000 -62.6000 80 hurdat_atl main 1201 1201 O_____________ hurdat_atl AL201969 28.8000 -62.6000 HU 80 1 6 35
1969264N16313 1969 84 NA NA INGA 1969-10-01 09:00:00 TS 29.0575 -62.3999 main 1239 1239 P_____________ AL201969 29.0575 -62.3999 HU 80 1 6 35
1969264N16313 1969 84 NA NA INGA 1969-10-01 12:00:00 TS 29.3000 -62.2000 80 990 hurdat_atl main 1265 1265 O_____________ hurdat_atl AL201969 29.3000 -62.2000 HU 80 990 1 6 37
1969264N16313 1969 84 NA NA INGA 1969-10-01 15:00:00 TS 29.5375 -61.9851 main 1292 1292 P_____________ AL201969 29.5375 -61.9851 HU 80 1 5 41
1969264N16313 1969 84 NA NA INGA 1969-10-01 18:00:00 TS 29.7000 -61.8000 80 hurdat_atl main 1320 1320 O_____________ hurdat_atl AL201969 29.7000 -61.8000 HU 80 1 3 50
1969264N16313 1969 84 NA NA INGA 1969-10-01 21:00:00 TS 29.7600 -61.6774 main 1333 1326 P_____________ AL201969 29.7600 -61.6774 HU 80 1 2 90
1969264N16313 1969 84 NA NA INGA 1969-10-02 00:00:00 TS 29.7000 -61.6000 80 hurdat_atl main 1326 1308 O_____________ hurdat_atl AL201969 29.7000 -61.6000 HU 80 1 3 150
1969264N16313 1969 84 NA NA INGA 1969-10-02 03:00:00 TS 29.5300 -61.5274 main 1308 1287 P_____________ AL201969 29.5300 -61.5274 HU 80 1 4 168
1969264N16313 1969 84 NA NA INGA 1969-10-02 06:00:00 TS 29.3000 -61.5000 80 hurdat_atl main 1287 1266 O_____________ hurdat_atl AL201969 29.3000 -61.5000 HU 80 1 4 0
1969264N16313 1969 84 NA NA INGA 1969-10-02 09:00:00 TS 29.1000 -61.5275 main 1266 1241 P_____________ AL201969 29.1000 -61.5275 HU 80 1 4 192
1969264N16313 1969 84 NA NA INGA 1969-10-02 12:00:00 TS 28.9000 -61.6000 80 987 hurdat_atl main 1241 1217 O_____________ hurdat_atl AL201969 28.9000 -61.6000 HU 80 987 1 4 199
1969264N16313 1969 84 NA NA INGA 1969-10-02 15:00:00 TS 28.7000 -61.6850 main 1217 1193 P_____________ AL201969 28.7000 -61.6850 HU 80 1 4 204
1969264N16313 1969 84 NA NA INGA 1969-10-02 18:00:00 TS 28.5000 -61.8000 80 hurdat_atl main 1193 1168 O_____________ hurdat_atl AL201969 28.5000 -61.8000 HU 80 1 5 207
1969264N16313 1969 84 NA NA INGA 1969-10-02 21:00:00 TS 28.2924 -61.9199 main 1168 1141 P_____________ AL201969 28.2924 -61.9199 HU 75 1 5 214
1969264N16313 1969 84 NA NA INGA 1969-10-03 00:00:00 TS 28.1000 -62.1000 70 hurdat_atl main 1141 1110 O_____________ hurdat_atl AL201969 28.1000 -62.1000 HU 70 1 5 228
1969264N16313 1969 84 NA NA INGA 1969-10-03 03:00:00 TS 27.9350 -62.3700 main 1110 1091 P_____________ AL201969 27.9350 -62.3700 HU 70 1 6 240
1969264N16313 1969 84 NA NA INGA 1969-10-03 06:00:00 TS 27.8000 -62.7000 70 hurdat_atl main 1091 1072 O_____________ hurdat_atl AL201969 27.8000 -62.7000 HU 70 1 6 246
1969264N16313 1969 84 NA NA INGA 1969-10-03 09:00:00 TS 27.6774 -63.0350 main 1072 1052 P_____________ AL201969 27.6774 -63.0350 HU 70 1 7 252
1969264N16313 1969 84 NA NA INGA 1969-10-03 12:00:00 TS 27.6000 -63.4000 70 989 hurdat_atl main 1052 1044 O_____________ hurdat_atl AL201969 27.6000 -63.4000 HU 70 989 1 7 262
1969264N16313 1969 84 NA NA INGA 1969-10-03 15:00:00 TS 27.5774 -63.7924 main 1044 1038 P_____________ AL201969 27.5774 -63.7924 HU 70 1 7 270
1969264N16313 1969 84 NA NA INGA 1969-10-03 18:00:00 TS 27.6000 -64.2000 70 hurdat_atl main 1038 1033 O_____________ hurdat_atl AL201969 27.6000 -64.2000 HU 70 1 7 274
1969264N16313 1969 84 NA NA INGA 1969-10-03 21:00:00 TS 27.6351 -64.6300 main 1033 1032 P_____________ AL201969 27.6351 -64.6300 HU 70 1 7 278
1969264N16313 1969 84 NA NA INGA 1969-10-04 00:00:00 TS 27.7000 -65.0000 70 hurdat_atl main 1035 1027 O_____________ hurdat_atl AL201969 27.7000 -65.0000 HU 70 1 6 284
1969264N16313 1969 84 NA NA INGA 1969-10-04 03:00:00 TS 27.7698 -65.2376 main 1037 1033 P_____________ AL201969 27.7698 -65.2376 HU 70 1 4 299
1969264N16313 1969 84 NA NA INGA 1969-10-04 06:00:00 TS 27.9000 -65.4000 70 hurdat_atl main 1038 1034 O_____________ hurdat_atl AL201969 27.9000 -65.4000 HU 70 1 5 315
1969264N16313 1969 84 NA NA INGA 1969-10-04 09:00:00 TS 28.1124 -65.6244 main 1049 1049 P_____________ AL201969 28.1124 -65.6244 HU 72 1 6 332
1969264N16313 1969 84 NA NA INGA 1969-10-04 12:00:00 TS 28.4000 -65.7000 75 980 hurdat_atl main 1075 1075 O_____________ hurdat_atl AL201969 28.4000 -65.7000 HU 75 980 1 6 8
1969264N16313 1969 84 NA NA INGA 1969-10-04 15:00:00 TS 28.7421 -65.5200 main 1114 1114 P_____________ AL201969 28.7421 -65.5200 HU 77 1 9 37
1969264N16313 1969 84 NA NA INGA 1969-10-04 18:00:00 TS 29.1000 -65.1000 80 hurdat_atl main 1171 1171 O_____________ hurdat_atl AL201969 29.1000 -65.1000 HU 80 1 11 53
1969264N16313 1969 84 NA NA INGA 1969-10-04 21:00:00 TS 29.3926 -64.5170 main 1227 1227 P_____________ AL201969 29.3926 -64.5170 HU 85 2 13 62
1969264N16313 1969 84 NA NA INGA 1969-10-05 00:00:00 TS 29.7000 -63.8000 90 hurdat_atl main 1275 1275 O_____________ hurdat_atl AL201969 29.7000 -63.8000 HU 90 2 14 61
1969264N16313 1969 84 NA NA INGA 1969-10-05 03:00:00 TS 30.0922 -63.0724 main 1316 1316 P_____________ AL201969 30.0922 -63.0724 HU 92 2 15 58
1969264N16313 1969 84 NA NA INGA 1969-10-05 06:00:00 TS 30.5000 -62.3000 95 hurdat_atl main 1359 1359 O_____________ hurdat_atl AL201969 30.5000 -62.3000 HU 95 2 16 61
1969264N16313 1969 84 NA NA INGA 1969-10-05 09:00:00 TS 30.8576 -61.4772 main 1406 1406 P_____________ AL201969 30.8576 -61.4772 HU 95 2 15 63
1969264N16313 1969 84 NA NA INGA 1969-10-05 12:00:00 TS 31.2000 -60.7000 95 964 hurdat_atl main 1428 1409 O_____________ hurdat_atl AL201969 31.2000 -60.7000 HU 95 964 2 14 60
1969264N16313 1969 84 NA NA INGA 1969-10-05 15:00:00 TS 31.5567 -60.0694 main 1401 1384 P_____________ AL201969 31.5567 -60.0694 HU 97 3 12 56
1969264N16313 1969 84 NA NA INGA 1969-10-05 18:00:00 TS 31.9000 -59.5000 100 hurdat_atl main 1387 1372 O_____________ hurdat_atl AL201969 31.9000 -59.5000 HU 100 3 12 57
1969264N16313 1969 84 NA NA INGA 1969-10-05 21:00:00 TS 32.2074 -58.8846 main 1376 1364 P_____________ AL201969 32.2074 -58.8846 HU 97 3 12 59
1969264N16313 1969 84 NA NA INGA 1969-10-06 00:00:00 TS 32.5000 -58.3000 95 hurdat_atl main 1367 1353 O_____________ hurdat_atl AL201969 32.5000 -58.3000 HU 95 2 11 57
1969264N16313 1969 84 NA NA INGA 1969-10-06 03:00:00 TS 32.8073 -57.7698 main 1357 1345 P_____________ AL201969 32.8073 -57.7698 HU 92 2 10 54
1969264N16313 1969 84 NA NA INGA 1969-10-06 06:00:00 TS 33.1000 -57.3000 90 hurdat_atl main 1349 1338 O_____________ hurdat_atl AL201969 33.1000 -57.3000 HU 90 2 9 53
1969264N16313 1969 84 NA NA INGA 1969-10-06 09:00:00 TS 33.3724 -56.8624 main 1338 1333 P_____________ AL201969 33.3724 -56.8624 HU 85 2 8 53
1969264N16313 1969 84 NA NA INGA 1969-10-06 12:00:00 TS 33.6000 -56.5000 80 980 hurdat_atl main 1338 1330 O_____________ hurdat_atl AL201969 33.6000 -56.5000 HU 80 980 1 7 53
1969264N16313 1969 84 NA NA INGA 1969-10-06 15:00:00 TS 33.7723 -56.2272 main 1335 1327 P_____________ AL201969 33.7723 -56.2272 HU 80 1 5 54
1969264N16313 1969 84 NA NA INGA 1969-10-06 18:00:00 TS 33.9000 -56.0000 80 hurdat_atl main 1330 1322 O_____________ hurdat_atl AL201969 33.9000 -56.0000 HU 80 1 5 59
1969264N16313 1969 84 NA NA INGA 1969-10-06 21:00:00 TS 34.0075 -55.7499 main 1328 1320 P_____________ AL201969 34.0075 -55.7499 HU 80 1 5 64
1969264N16313 1969 84 NA NA INGA 1969-10-07 00:00:00 TS 34.1000 -55.5000 80 hurdat_atl main 1323 1316 O_____________ hurdat_atl AL201969 34.1000 -55.5000 HU 80 1 5 64
1969264N16313 1969 84 NA NA INGA 1969-10-07 03:00:00 TS 34.2074 -55.2500 main 1319 1315 P_____________ AL201969 34.2075 -55.2500 HU 80 1 5 64
1969264N16313 1969 84 NA NA INGA 1969-10-07 06:00:00 TS 34.3000 -55.0000 80 hurdat_atl main 1318 1315 O_____________ hurdat_atl AL201969 34.3000 -55.0000 HU 80 1 4 70
1969264N16313 1969 84 NA NA INGA 1969-10-07 09:00:00 TS 34.3574 -54.7499 main 1318 1318 P_____________ AL201969 34.3574 -54.7499 HU 82 1 4 76
1969264N16313 1969 84 NA NA INGA 1969-10-07 12:00:00 TS 34.4000 -54.5000 85 981 hurdat_atl main 1325 1322 O_____________ hurdat_atl AL201969 34.4000 -54.5000 HU 85 981 2 4 77
1969264N16313 1969 84 NA NA INGA 1969-10-07 15:00:00 TS 34.4575 -54.2425 main 1326 1326 P_____________ AL201969 34.4575 -54.2425 HU 85 2 4 76
1969264N16313 1969 84 NA NA INGA 1969-10-07 18:00:00 TS 34.5000 -54.0000 85 hurdat_atl main 1334 1334 O_____________ hurdat_atl AL201969 34.5000 -54.0000 HU 85 2 4 81
1969264N16313 1969 84 NA NA INGA 1969-10-07 21:00:00 TS 34.5149 -53.7925 main 1341 1341 P_____________ AL201969 34.5149 -53.7925 HU 85 2 3 90
1969264N16313 1969 84 NA NA INGA 1969-10-08 00:00:00 TS 34.5000 -53.6000 85 hurdat_atl main 1346 1346 O_____________ hurdat_atl AL201969 34.5000 -53.6000 HU 85 2 3 100
1969264N16313 1969 84 NA NA INGA 1969-10-08 03:00:00 TS 34.4575 -53.4000 main 1346 1346 P_____________ AL201969 34.4575 -53.4000 HU 77 1 3 107
1969264N16313 1969 84 NA NA INGA 1969-10-08 06:00:00 TS 34.4000 -53.2000 70 hurdat_atl main 1357 1357 O_____________ hurdat_atl AL201969 34.4000 -53.2000 HU 70 1 3 107
1969264N16313 1969 84 NA NA INGA 1969-10-08 09:00:00 TS 34.3575 -53.0001 main 1357 1357 P_____________ AL201969 34.3575 -53.0001 HU 67 1 3 107
1969264N16313 1969 84 NA NA INGA 1969-10-08 12:00:00 TS 34.3000 -52.8000 65 988 hurdat_atl main 1369 1369 O_____________ hurdat_atl AL201969 34.3000 -52.8000 HU 65 988 1 4 114
1969264N16313 1969 84 NA NA INGA 1969-10-08 15:00:00 TS 34.2075 -52.6000 main 1380 1380 P_____________ AL201969 34.2075 -52.6000 HU 70 1 4 121
1969264N16313 1969 84 NA NA INGA 1969-10-08 18:00:00 TS 34.1000 -52.4000 75 hurdat_atl main 1392 1392 O_____________ hurdat_atl AL201969 34.1000 -52.4000 HU 75 1 4 118
1969264N16313 1969 84 NA NA INGA 1969-10-08 21:00:00 TS 34.0300 -52.1927 main 1404 1404 P_____________ AL201969 34.0300 -52.1927 HU 75 1 4 121
1969264N16313 1969 84 NA NA INGA 1969-10-09 00:00:00 TS 33.9000 -52.0000 75 hurdat_atl main 1416 1416 O_____________ hurdat_atl AL201969 33.9000 -52.0000 HU 75 1 5 144
1969264N16313 1969 84 NA NA INGA 1969-10-09 03:00:00 TS 33.6300 -51.8349 main 1451 1451 P_____________ AL201969 33.6300 -51.8349 HU 75 1 7 157
1969264N16313 1969 84 NA NA INGA 1969-10-09 06:00:00 TS 33.3000 -51.7000 75 hurdat_atl main 1485 1485 O_____________ hurdat_atl AL201969 33.3000 -51.7000 HU 75 1 7 162
1969264N16313 1969 84 NA NA INGA 1969-10-09 09:00:00 TS 32.9925 -51.5851 main 1519 1519 P_____________ AL201969 32.9925 -51.5851 HU 75 1 6 164
1969264N16313 1969 84 NA NA INGA 1969-10-09 12:00:00 TS 32.7000 -51.5000 75 985 hurdat_atl main 1553 1553 O_____________ hurdat_atl AL201969 32.7000 -51.5000 HU 75 985 1 6 168
1969264N16313 1969 84 NA NA INGA 1969-10-09 15:00:00 TS 32.4425 -51.4426 main 1587 1587 P_____________ AL201969 32.4425 -51.4426 HU 75 1 5 170
1969264N16313 1969 84 NA NA INGA 1969-10-09 18:00:00 TS 32.2000 -51.4000 75 hurdat_atl main 1610 1610 O_____________ hurdat_atl AL201969 32.2000 -51.4000 HU 75 1 5 171
1969264N16313 1969 84 NA NA INGA 1969-10-09 21:00:00 TS 31.9500 -51.3500 main 1632 1643 P_____________ AL201969 31.9500 -51.3500 HU 72 1 5 170
1969264N16313 1969 84 NA NA INGA 1969-10-10 00:00:00 TS 31.7000 -51.3000 70 hurdat_atl main 1666 1666 O_____________ hurdat_atl AL201969 31.7000 -51.3000 HU 70 1 5 170
1969264N16313 1969 84 NA NA INGA 1969-10-10 03:00:00 TS 31.4575 -51.2500 main 1688 1688 P_____________ AL201969 31.4575 -51.2500 HU 70 1 5 170
1969264N16313 1969 84 NA NA INGA 1969-10-10 06:00:00 TS 31.2000 -51.2000 70 hurdat_atl main 1722 1722 O_____________ hurdat_atl AL201969 31.2000 -51.2000 HU 70 1 6 171
1969264N16313 1969 84 NA NA INGA 1969-10-10 09:00:00 TS 30.9075 -51.1500 main 1756 1756 P_____________ AL201969 30.9075 -51.1500 HU 65 1 6 172
1969264N16313 1969 84 NA NA INGA 1969-10-10 12:00:00 TS 30.6000 -51.1000 60 993 hurdat_atl main 1790 1790 O_____________ hurdat_atl AL201969 30.6000 -51.1000 TS 60 993 0 6 169
1969264N16313 1969 84 NA NA INGA 1969-10-10 15:00:00 TS 30.3075 -51.0122 main 1824 1824 P_____________ AL201969 30.3075 -51.0122 TS 60 0 6 172
1969264N16313 1969 84 NA NA INGA 1969-10-10 18:00:00 TS 30.0000 -51.0000 60 hurdat_atl main 1857 1857 O_____________ hurdat_atl AL201969 30.0000 -51.0000 TS 60 0 7 191
1969264N16313 1969 84 NA NA INGA 1969-10-10 21:00:00 TS 29.6500 -51.1552 main 1889 1885 P_____________ AL201969 29.6500 -51.1552 TS 60 0 8 206
1969264N16313 1969 84 NA NA INGA 1969-10-11 00:00:00 TS 29.3000 -51.4000 60 hurdat_atl main 1885 1849 O_____________ hurdat_atl AL201969 29.3000 -51.4000 TS 60 0 8 212
1969264N16313 1969 84 NA NA INGA 1969-10-11 03:00:00 TS 28.9849 -51.6349 main 1849 1806 P_____________ AL201969 28.9849 -51.6349 TS 57 0 7 216
1969264N16313 1969 84 NA NA INGA 1969-10-11 06:00:00 TS 28.7000 -51.9000 55 hurdat_atl main 1806 1769 O_____________ hurdat_atl AL201969 28.7000 -51.9000 TS 55 0 7 222
1969264N16313 1969 84 NA NA INGA 1969-10-11 09:00:00 TS 28.4425 -52.1924 main 1763 1726 P_____________ AL201969 28.4425 -52.1924 TS 52 0 7 227
1969264N16313 1969 84 NA NA INGA 1969-10-11 12:00:00 TS 28.2000 -52.5000 50 998 hurdat_atl main 1726 1689 O_____________ hurdat_atl AL201969 28.2000 -52.5000 TS 50 998 0 7 227
1969264N16313 1969 84 NA NA INGA 1969-10-11 15:00:00 TS 27.9498 -52.7848 main 1682 1645 P_____________ AL201969 27.9498 -52.7848 TS 45 0 7 227
1969264N16313 1969 84 NA NA INGA 1969-10-11 18:00:00 TS 27.7000 -53.1000 40 hurdat_atl main 1645 1600 O_____________ hurdat_atl AL201969 27.7000 -53.1000 TS 40 0 8 231
1969264N16313 1969 84 NA NA INGA 1969-10-11 21:00:00 TS 27.4425 -53.4850 main 1594 1549 P_____________ AL201969 27.4425 -53.4850 TS 40 0 9 235
1969264N16313 1969 84 NA NA INGA 1969-10-12 00:00:00 TS 27.2000 -53.9000 40 hurdat_atl main 1549 1504 O_____________ hurdat_atl AL201969 27.2000 -53.9000 TS 40 0 9 238
1969264N16313 1969 84 NA NA INGA 1969-10-12 03:00:00 TS 26.9924 -54.2998 main 1504 1459 P_____________ AL201969 26.9924 -54.2998 TS 40 0 8 241
1969264N16313 1969 84 NA NA INGA 1969-10-12 06:00:00 TS 26.8000 -54.7000 40 hurdat_atl main 1459 1414 O_____________ hurdat_atl AL201969 26.8000 -54.7000 TS 40 0 8 240
1969264N16313 1969 84 NA NA INGA 1969-10-12 09:00:00 TS 26.5849 -55.1000 main 1414 1368 P_____________ AL201969 26.5849 -55.1000 TS 37 0 8 241
1969264N16313 1969 84 NA NA INGA 1969-10-12 12:00:00 TS 26.4000 -55.5000 35 1001 hurdat_atl main 1368 1331 O_____________ hurdat_atl AL201969 26.4000 -55.5000 TS 35 1001 0 8 247
1969264N16313 1969 84 NA NA INGA 1969-10-12 15:00:00 TS 26.2849 -55.8998 main 1331 1293 P_____________ AL201969 26.2849 -55.8998 TS 35 0 7 254
1969264N16313 1969 84 NA NA INGA 1969-10-12 18:00:00 TS 26.2000 -56.3000 35 hurdat_atl main 1293 1255 O_____________ hurdat_atl AL201969 26.2000 -56.3000 TS 35 0 7 255
1969264N16313 1969 84 NA NA INGA 1969-10-12 21:00:00 TS 26.0924 -56.7000 main 1255 1218 P_____________ AL201969 26.0924 -56.7000 TS 35 0 7 254
1969264N16313 1969 84 NA NA INGA 1969-10-13 00:00:00 TS 26.0000 -57.1000 35 hurdat_atl main 1218 1181 O_____________ hurdat_atl AL201969 26.0000 -57.1000 TS 35 0 7 258
1969264N16313 1969 84 NA NA INGA 1969-10-13 03:00:00 TS 25.9423 -57.4924 main 1181 1153 P_____________ AL201969 25.9423 -57.4924 TS 32 -1 7 262
1969264N16313 1969 84 NA NA INGA 1969-10-13 06:00:00 TS 25.9000 -57.9000 30 hurdat_atl main 1153 1117 O_____________ hurdat_atl AL201969 25.9000 -57.9000 TD 30 -1 8 263
1969264N16313 1969 84 NA NA INGA 1969-10-13 09:00:00 TS 25.8425 -58.3501 main 1110 1083 P_____________ AL201969 25.8425 -58.3501 TD 30 -1 8 263
1969264N16313 1969 84 NA NA INGA 1969-10-13 12:00:00 TS 25.8000 -58.8000 30 1003 hurdat_atl main 1083 1057 O_____________ hurdat_atl AL201969 25.8000 -58.8000 TD 30 1003 -1 8 266
1969264N16313 1969 84 NA NA INGA 1969-10-13 15:00:00 TS 25.7924 -59.2224 main 1057 1032 P_____________ AL201969 25.7924 -59.2224 TD 30 -1 7 270
1969264N16313 1969 84 NA NA INGA 1969-10-13 18:00:00 TS 25.8000 -59.6000 30 hurdat_atl main 1032 1014 O_____________ hurdat_atl AL201969 25.8000 -59.6000 TD 30 -1 6 271
1969264N16313 1969 84 NA NA INGA 1969-10-13 21:00:00 TS 25.7999 -59.9225 main 1014 996 P_____________ AL201969 25.7999 -59.9225 TD 30 -1 5 270
1969264N16313 1969 84 NA NA INGA 1969-10-14 00:00:00 TS 25.8000 -60.2000 30 hurdat_atl main 996 979 O_____________ hurdat_atl AL201969 25.8000 -60.2000 TD 30 -1 5 269
1969264N16313 1969 84 NA NA INGA 1969-10-14 03:00:00 TS 25.7925 -60.4725 main 979 968 P_____________ AL201969 25.7925 -60.4725 TD 30 -1 5 270
1969264N16313 1969 84 NA NA INGA 1969-10-14 06:00:00 TS 25.8000 -60.7000 30 hurdat_atl main 968 958 O_____________ hurdat_atl AL201969 25.8000 -60.7000 TD 30 -1 4 278
1969264N16313 1969 84 NA NA INGA 1969-10-14 09:00:00 TS 25.8424 -60.8650 main 958 958 P_____________ AL201969 25.8424 -60.8650 TD 27 -1 3 290
1969264N16313 1969 84 NA NA INGA 1969-10-14 12:00:00 TS 25.9000 -61.0000 25 1008 hurdat_atl main 962 957 O_____________ hurdat_atl AL201969 25.9000 -61.0000 TD 25 1008 -1 3 293
1969264N16313 1969 84 NA NA INGA 1969-10-14 15:00:00 TS 25.9500 -61.1500 main 952 952 P_____________ AL201969 25.9500 -61.1500 TD 25 -1 3 291
1969264N16313 1969 84 NA NA INGA 1969-10-14 18:00:00 TS 26.0000 -61.3000 25 hurdat_atl main 957 953 O_____________ hurdat_atl AL201969 26.0000 -61.3000 TD 25 -1 3 291
1969264N16313 1969 84 NA NA INGA 1969-10-14 21:00:00 TS 26.0500 -61.4500 main 962 953 P_____________ AL201969 26.0500 -61.4500 TD 25 -1 3 291
1969264N16313 1969 84 NA NA INGA 1969-10-15 00:00:00 TS 26.1000 -61.6000 25 hurdat_atl main 953 O_____________ hurdat_atl AL201969 26.1000 -61.6000 TD 25 -1 3 290

About IBTrACS Database

This database is a web-friendly format of International Best Track Archive for Climate Stewardship (IBTrACS), a global best track data archive curated by NOAA dating back to 1842.

Updated: 2021-12-03